sensor_id;sensor_type;location;lat;lon;timestamp;P1;durP1;ratioP1;P2;durP2;ratioP2
10248;SDS011;5169;50.560;9.714;2023-07-20T00:01:28;123.73;;;113.30;;
10248;SDS011;5169;50.560;9.714;2023-07-20T00:03:53;114.57;;;105.27;;
10248;SDS011;5169;50.560;9.714;2023-07-20T00:06:22;116.73;;;106.97;;
10248;SDS011;5169;50.560;9.714;2023-07-20T00:08:52;122.87;;;112.57;;
10248;SDS011;5169;50.560;9.714;2023-07-20T00:11:21;118.17;;;107.77;;
10248;SDS011;5169;50.560;9.714;2023-07-20T00:13:50;113.97;;;104.33;;
10248;SDS011;5169;50.560;9.714;2023-07-20T00:16:15;117.43;;;107.07;;
10248;SDS011;5169;50.560;9.714;2023-07-20T00:18:41;128.50;;;116.57;;
10248;SDS011;5169;50.560;9.714;2023-07-20T00:21:06;122.53;;;111.63;;
10248;SDS011;5169;50.560;9.714;2023-07-20T00:23:32;115.33;;;105.17;;
10248;SDS011;5169;50.560;9.714;2023-07-20T00:25:57;119.40;;;108.73;;
10248;SDS011;5169;50.560;9.714;2023-07-20T00:28:23;114.17;;;104.10;;
10248;SDS011;5169;50.560;9.714;2023-07-20T00:30:49;118.83;;;107.50;;
10248;SDS011;5169;50.560;9.714;2023-07-20T00:33:16;117.90;;;107.40;;
10248;SDS011;5169;50.560;9.714;2023-07-20T00:35:43;117.30;;;106.77;;
10248;SDS011;5169;50.560;9.714;2023-07-20T00:38:09;118.23;;;107.80;;
10248;SDS011;5169;50.560;9.714;2023-07-20T00:40:35;104.23;;;95.53;;
10248;SDS011;5169;50.560;9.714;2023-07-20T00:43:04;109.83;;;100.30;;
10248;SDS011;5169;50.560;9.714;2023-07-20T00:45:30;114.57;;;104.77;;
10248;SDS011;5169;50.560;9.714;2023-07-20T00:48:01;114.93;;;105.17;;
10248;SDS011;5169;50.560;9.714;2023-07-20T00:50:26;113.20;;;103.37;;
10248;SDS011;5169;50.560;9.714;2023-07-20T00:52:54;114.97;;;105.27;;
10248;SDS011;5169;50.560;9.714;2023-07-20T00:55:20;114.77;;;104.80;;
10248;SDS011;5169;50.560;9.714;2023-07-20T00:57:46;103.03;;;94.33;;
10248;SDS011;5169;50.560;9.714;2023-07-20T01:00:12;111.67;;;102.03;;
10248;SDS011;5169;50.560;9.714;2023-07-20T01:02:38;106.23;;;97.43;;
10248;SDS011;5169;50.560;9.714;2023-07-20T01:05:03;110.53;;;100.70;;
10248;SDS011;5169;50.560;9.714;2023-07-20T01:07:37;113.60;;;103.60;;
10248;SDS011;5169;50.560;9.714;2023-07-20T01:10:12;109.00;;;99.47;;
10248;SDS011;5169;50.560;9.714;2023-07-20T01:12:58;121.10;;;110.10;;
10248;SDS011;5169;50.560;9.714;2023-07-20T01:15:27;113.60;;;103.50;;
10248;SDS011;5169;50.560;9.714;2023-07-20T01:17:53;97.87;;;89.53;;
10248;SDS011;5169;50.560;9.714;2023-07-20T01:20:21;110.67;;;100.17;;
10248;SDS011;5169;50.560;9.714;2023-07-20T01:28:11;108.43;;;98.77;;
10248;SDS011;5169;50.560;9.714;2023-07-20T01:33:17;104.23;;;94.67;;
10248;SDS011;5169;50.560;9.714;2023-07-20T01:35:48;103.80;;;94.50;;
10248;SDS011;5169;50.560;9.714;2023-07-20T01:38:23;101.53;;;92.53;;
10248;SDS011;5169;50.560;9.714;2023-07-20T01:40:51;107.00;;;97.23;;
10248;SDS011;5169;50.560;9.714;2023-07-20T01:43:17;102.73;;;93.33;;
10248;SDS011;5169;50.560;9.714;2023-07-20T01:45:43;103.33;;;94.03;;
10248;SDS011;5169;50.560;9.714;2023-07-20T01:48:11;108.30;;;98.40;;
10248;SDS011;5169;50.560;9.714;2023-07-20T01:50:39;110.23;;;99.97;;
10248;SDS011;5169;50.560;9.714;2023-07-20T01:53:05;117.07;;;106.17;;
10248;SDS011;5169;50.560;9.714;2023-07-20T01:55:35;95.63;;;87.13;;
10248;SDS011;5169;50.560;9.714;2023-07-20T01:58:01;103.50;;;94.13;;
10248;SDS011;5169;50.560;9.714;2023-07-20T02:00:29;102.40;;;93.23;;
10248;SDS011;5169;50.560;9.714;2023-07-20T02:02:55;94.63;;;86.13;;
10248;SDS011;5169;50.560;9.714;2023-07-20T02:05:20;112.57;;;102.30;;
10248;SDS011;5169;50.560;9.714;2023-07-20T02:07:46;115.23;;;104.23;;
10248;SDS011;5169;50.560;9.714;2023-07-20T02:10:12;111.20;;;100.60;;
10248;SDS011;5169;50.560;9.714;2023-07-20T02:12:37;110.70;;;100.23;;
10248;SDS011;5169;50.560;9.714;2023-07-20T02:15:03;105.30;;;95.67;;
10248;SDS011;5169;50.560;9.714;2023-07-20T02:17:31;103.77;;;94.23;;
10248;SDS011;5169;50.560;9.714;2023-07-20T02:19:56;97.67;;;88.73;;
10248;SDS011;5169;50.560;9.714;2023-07-20T02:22:22;94.90;;;86.80;;
10248;SDS011;5169;50.560;9.714;2023-07-20T02:24:48;96.37;;;87.97;;
10248;SDS011;5169;50.560;9.714;2023-07-20T02:27:15;105.57;;;95.97;;
10248;SDS011;5169;50.560;9.714;2023-07-20T02:29:41;107.73;;;97.83;;
10248;SDS011;5169;50.560;9.714;2023-07-20T02:32:07;108.87;;;98.73;;
10248;SDS011;5169;50.560;9.714;2023-07-20T02:34:34;108.47;;;97.83;;
10248;SDS011;5169;50.560;9.714;2023-07-20T02:37:00;103.67;;;93.87;;
10248;SDS011;5169;50.560;9.714;2023-07-20T02:39:27;100.30;;;90.97;;
10248;SDS011;5169;50.560;9.714;2023-07-20T02:41:53;105.83;;;95.57;;
10248;SDS011;5169;50.560;9.714;2023-07-20T02:44:18;97.70;;;88.50;;
10248;SDS011;5169;50.560;9.714;2023-07-20T02:46:46;102.93;;;93.43;;
10248;SDS011;5169;50.560;9.714;2023-07-20T02:49:14;107.63;;;97.73;;
10248;SDS011;5169;50.560;9.714;2023-07-20T02:51:40;106.27;;;96.43;;
10248;SDS011;5169;50.560;9.714;2023-07-20T02:54:06;113.67;;;102.77;;
10248;SDS011;5169;50.560;9.714;2023-07-20T02:56:31;113.47;;;102.27;;
10248;SDS011;5169;50.560;9.714;2023-07-20T02:58:57;106.57;;;96.10;;
10248;SDS011;5169;50.560;9.714;2023-07-20T03:01:23;103.57;;;93.57;;
10248;SDS011;5169;50.560;9.714;2023-07-20T03:03:48;110.23;;;99.40;;
10248;SDS011;5169;50.560;9.714;2023-07-20T03:06:14;104.23;;;93.80;;
10248;SDS011;5169;50.560;9.714;2023-07-20T03:08:41;105.60;;;95.13;;
10248;SDS011;5169;50.560;9.714;2023-07-20T03:11:10;109.43;;;98.33;;
10248;SDS011;5169;50.560;9.714;2023-07-20T03:13:36;111.30;;;100.53;;
10248;SDS011;5169;50.560;9.714;2023-07-20T03:16:01;112.47;;;101.10;;
10248;SDS011;5169;50.560;9.714;2023-07-20T03:18:29;111.57;;;100.70;;
10248;SDS011;5169;50.560;9.714;2023-07-20T03:20:54;106.10;;;96.10;;
10248;SDS011;5169;50.560;9.714;2023-07-20T03:23:20;117.27;;;105.73;;
10248;SDS011;5169;50.560;9.714;2023-07-20T03:25:46;111.53;;;100.63;;
10248;SDS011;5169;50.560;9.714;2023-07-20T03:28:11;118.47;;;106.27;;
10248;SDS011;5169;50.560;9.714;2023-07-20T03:30:39;121.43;;;108.63;;
10248;SDS011;5169;50.560;9.714;2023-07-20T03:33:05;107.43;;;96.83;;
10248;SDS011;5169;50.560;9.714;2023-07-20T03:35:30;111.17;;;99.80;;
10248;SDS011;5169;50.560;9.714;2023-07-20T03:37:56;114.43;;;102.53;;
10248;SDS011;5169;50.560;9.714;2023-07-20T03:40:22;111.10;;;100.17;;
10248;SDS011;5169;50.560;9.714;2023-07-20T03:42:48;119.40;;;107.43;;
10248;SDS011;5169;50.560;9.714;2023-07-20T03:45:13;118.63;;;106.60;;
10248;SDS011;5169;50.560;9.714;2023-07-20T03:47:39;113.20;;;101.57;;
10248;SDS011;5169;50.560;9.714;2023-07-20T03:50:04;111.77;;;100.47;;
10248;SDS011;5169;50.560;9.714;2023-07-20T03:52:30;111.60;;;100.37;;
10248;SDS011;5169;50.560;9.714;2023-07-20T03:54:58;109.10;;;98.23;;
10248;SDS011;5169;50.560;9.714;2023-07-20T03:57:24;115.07;;;103.50;;
10248;SDS011;5169;50.560;9.714;2023-07-20T03:59:49;116.33;;;104.23;;
10248;SDS011;5169;50.560;9.714;2023-07-20T04:02:17;109.37;;;98.10;;
10248;SDS011;5169;50.560;9.714;2023-07-20T04:04:43;112.87;;;101.17;;
10248;SDS011;5169;50.560;9.714;2023-07-20T04:07:09;109.70;;;98.57;;
10248;SDS011;5169;50.560;9.714;2023-07-20T04:09:36;112.33;;;101.23;;
10248;SDS011;5169;50.560;9.714;2023-07-20T04:12:05;107.40;;;96.87;;
10248;SDS011;5169;50.560;9.714;2023-07-20T04:14:31;112.70;;;101.40;;
10248;SDS011;5169;50.560;9.714;2023-07-20T04:16:57;115.03;;;103.53;;
10248;SDS011;5169;50.560;9.714;2023-07-20T04:19:22;106.17;;;96.03;;
10248;SDS011;5169;50.560;9.714;2023-07-20T04:21:48;115.07;;;103.43;;
10248;SDS011;5169;50.560;9.714;2023-07-20T04:24:13;114.27;;;102.67;;
10248;SDS011;5169;50.560;9.714;2023-07-20T04:26:39;109.17;;;98.53;;
10248;SDS011;5169;50.560;9.714;2023-07-20T04:29:07;104.00;;;93.80;;
10248;SDS011;5169;50.560;9.714;2023-07-20T04:31:32;116.90;;;105.47;;
10248;SDS011;5169;50.560;9.714;2023-07-20T04:34:01;112.17;;;101.27;;
10248;SDS011;5169;50.560;9.714;2023-07-20T04:36:29;111.87;;;101.13;;
10248;SDS011;5169;50.560;9.714;2023-07-20T04:38:54;109.70;;;99.00;;
10248;SDS011;5169;50.560;9.714;2023-07-20T04:41:20;108.73;;;98.10;;
10248;SDS011;5169;50.560;9.714;2023-07-20T04:43:45;118.40;;;106.67;;
10248;SDS011;5169;50.560;9.714;2023-07-20T04:46:12;111.13;;;100.57;;
10248;SDS011;5169;50.560;9.714;2023-07-20T04:48:37;108.83;;;98.57;;
10248;SDS011;5169;50.560;9.714;2023-07-20T04:51:03;108.53;;;98.30;;
10248;SDS011;5169;50.560;9.714;2023-07-20T04:53:29;107.20;;;97.40;;
10248;SDS011;5169;50.560;9.714;2023-07-20T04:55:56;114.90;;;103.97;;
10248;SDS011;5169;50.560;9.714;2023-07-20T04:58:21;107.30;;;96.87;;
10248;SDS011;5169;50.560;9.714;2023-07-20T05:00:51;112.43;;;101.50;;
10248;SDS011;5169;50.560;9.714;2023-07-20T05:03:20;109.53;;;99.10;;
10248;SDS011;5169;50.560;9.714;2023-07-20T05:05:46;117.33;;;105.93;;
10248;SDS011;5169;50.560;9.714;2023-07-20T05:08:13;117.07;;;105.80;;
10248;SDS011;5169;50.560;9.714;2023-07-20T05:10:39;111.13;;;100.47;;
10248;SDS011;5169;50.560;9.714;2023-07-20T05:13:04;112.27;;;101.60;;
10248;SDS011;5169;50.560;9.714;2023-07-20T05:15:33;113.27;;;102.90;;
10248;SDS011;5169;50.560;9.714;2023-07-20T05:18:02;120.00;;;108.47;;
10248;SDS011;5169;50.560;9.714;2023-07-20T05:20:28;118.93;;;107.87;;
10248;SDS011;5169;50.560;9.714;2023-07-20T05:22:53;117.73;;;107.03;;
10248;SDS011;5169;50.560;9.714;2023-07-20T05:25:19;117.30;;;106.47;;
10248;SDS011;5169;50.560;9.714;2023-07-20T05:27:47;119.30;;;108.23;;
10248;SDS011;5169;50.560;9.714;2023-07-20T05:30:13;123.20;;;111.50;;
10248;SDS011;5169;50.560;9.714;2023-07-20T05:32:43;122.03;;;110.20;;
10248;SDS011;5169;50.560;9.714;2023-07-20T05:35:16;112.77;;;101.73;;
10248;SDS011;5169;50.560;9.714;2023-07-20T05:37:45;114.73;;;104.13;;
10248;SDS011;5169;50.560;9.714;2023-07-20T05:40:11;123.57;;;111.67;;
10248;SDS011;5169;50.560;9.714;2023-07-20T05:42:38;116.60;;;105.60;;
10248;SDS011;5169;50.560;9.714;2023-07-20T05:45:06;117.00;;;105.93;;
10248;SDS011;5169;50.560;9.714;2023-07-20T05:47:32;122.70;;;110.90;;
10248;SDS011;5169;50.560;9.714;2023-07-20T05:49:58;124.10;;;112.17;;
10248;SDS011;5169;50.560;9.714;2023-07-20T05:52:23;117.57;;;106.57;;
10248;SDS011;5169;50.560;9.714;2023-07-20T05:54:49;121.57;;;110.30;;
10248;SDS011;5169;50.560;9.714;2023-07-20T05:57:14;126.67;;;114.57;;
10248;SDS011;5169;50.560;9.714;2023-07-20T05:59:40;118.70;;;107.73;;
10248;SDS011;5169;50.560;9.714;2023-07-20T06:02:09;116.93;;;106.50;;
10248;SDS011;5169;50.560;9.714;2023-07-20T06:04:35;127.93;;;116.33;;
10248;SDS011;5169;50.560;9.714;2023-07-20T06:07:06;123.00;;;111.93;;
10248;SDS011;5169;50.560;9.714;2023-07-20T06:09:34;124.97;;;113.73;;
10248;SDS011;5169;50.560;9.714;2023-07-20T06:12:00;126.43;;;115.03;;
10248;SDS011;5169;50.560;9.714;2023-07-20T06:14:26;122.37;;;111.30;;
10248;SDS011;5169;50.560;9.714;2023-07-20T06:16:54;131.03;;;119.03;;
10248;SDS011;5169;50.560;9.714;2023-07-20T06:19:20;130.53;;;118.40;;
10248;SDS011;5169;50.560;9.714;2023-07-20T06:21:48;131.43;;;119.23;;
10248;SDS011;5169;50.560;9.714;2023-07-20T06:24:14;127.33;;;116.03;;
10248;SDS011;5169;50.560;9.714;2023-07-20T06:26:40;133.50;;;121.57;;
10248;SDS011;5169;50.560;9.714;2023-07-20T06:29:06;136.00;;;124.30;;
10248;SDS011;5169;50.560;9.714;2023-07-20T06:31:32;130.53;;;119.33;;
10248;SDS011;5169;50.560;9.714;2023-07-20T06:33:59;129.43;;;119.00;;
10248;SDS011;5169;50.560;9.714;2023-07-20T06:36:26;139.93;;;128.40;;
10248;SDS011;5169;50.560;9.714;2023-07-20T06:38:54;129.57;;;119.13;;
10248;SDS011;5169;50.560;9.714;2023-07-20T06:41:22;133.30;;;122.37;;
10248;SDS011;5169;50.560;9.714;2023-07-20T06:43:47;126.30;;;116.40;;
10248;SDS011;5169;50.560;9.714;2023-07-20T06:46:13;135.40;;;124.57;;
10248;SDS011;5169;50.560;9.714;2023-07-20T06:48:39;137.70;;;126.17;;
10248;SDS011;5169;50.560;9.714;2023-07-20T06:51:04;129.60;;;118.97;;
10248;SDS011;5169;50.560;9.714;2023-07-20T06:53:30;126.50;;;116.00;;
10248;SDS011;5169;50.560;9.714;2023-07-20T06:55:58;124.77;;;114.43;;
10248;SDS011;5169;50.560;9.714;2023-07-20T06:58:24;137.50;;;125.53;;
10248;SDS011;5169;50.560;9.714;2023-07-20T07:00:50;126.30;;;115.67;;
10248;SDS011;5169;50.560;9.714;2023-07-20T07:03:15;122.43;;;112.50;;
10248;SDS011;5169;50.560;9.714;2023-07-20T07:05:41;131.33;;;119.90;;
10248;SDS011;5169;50.560;9.714;2023-07-20T07:08:06;128.17;;;117.20;;
10248;SDS011;5169;50.560;9.714;2023-07-20T07:10:35;133.50;;;121.97;;
10248;SDS011;5169;50.560;9.714;2023-07-20T07:13:04;132.90;;;121.17;;
10248;SDS011;5169;50.560;9.714;2023-07-20T07:15:29;128.07;;;116.93;;
10248;SDS011;5169;50.560;9.714;2023-07-20T07:17:55;122.20;;;111.70;;
10248;SDS011;5169;50.560;9.714;2023-07-20T07:20:24;130.60;;;118.83;;
10248;SDS011;5169;50.560;9.714;2023-07-20T07:22:50;118.13;;;108.23;;
10248;SDS011;5169;50.560;9.714;2023-07-20T07:25:17;130.60;;;119.07;;
10248;SDS011;5169;50.560;9.714;2023-07-20T07:27:42;132.50;;;121.13;;
10248;SDS011;5169;50.560;9.714;2023-07-20T07:30:08;129.00;;;118.20;;
10248;SDS011;5169;50.560;9.714;2023-07-20T07:32:34;139.93;;;128.93;;
10248;SDS011;5169;50.560;9.714;2023-07-20T07:35:02;137.40;;;126.17;;
10248;SDS011;5169;50.560;9.714;2023-07-20T07:37:28;139.70;;;127.80;;
10248;SDS011;5169;50.560;9.714;2023-07-20T07:39:54;133.23;;;121.93;;
10248;SDS011;5169;50.560;9.714;2023-07-20T07:42:20;133.97;;;123.00;;
10248;SDS011;5169;50.560;9.714;2023-07-20T07:44:45;138.47;;;127.77;;
10248;SDS011;5169;50.560;9.714;2023-07-20T07:47:13;140.33;;;129.40;;
10248;SDS011;5169;50.560;9.714;2023-07-20T07:49:39;144.17;;;132.63;;
10248;SDS011;5169;50.560;9.714;2023-07-20T07:52:05;147.40;;;135.47;;
10248;SDS011;5169;50.560;9.714;2023-07-20T07:54:31;150.00;;;137.80;;
10248;SDS011;5169;50.560;9.714;2023-07-20T07:56:56;141.33;;;129.50;;
10248;SDS011;5169;50.560;9.714;2023-07-20T07:59:22;146.00;;;134.37;;
10248;SDS011;5169;50.560;9.714;2023-07-20T08:01:48;136.17;;;125.63;;
10248;SDS011;5169;50.560;9.714;2023-07-20T08:04:14;131.23;;;121.63;;
10248;SDS011;5169;50.560;9.714;2023-07-20T08:06:39;139.50;;;129.63;;
10248;SDS011;5169;50.560;9.714;2023-07-20T08:09:05;127.87;;;118.73;;
10248;SDS011;5169;50.560;9.714;2023-07-20T08:11:31;142.23;;;132.10;;
10248;SDS011;5169;50.560;9.714;2023-07-20T08:13:59;136.60;;;126.90;;
10248;SDS011;5169;50.560;9.714;2023-07-20T08:16:27;132.53;;;123.10;;
10248;SDS011;5169;50.560;9.714;2023-07-20T08:18:53;134.03;;;124.47;;
10248;SDS011;5169;50.560;9.714;2023-07-20T08:21:19;145.37;;;134.83;;
10248;SDS011;5169;50.560;9.714;2023-07-20T08:23:44;145.30;;;134.00;;
10248;SDS011;5169;50.560;9.714;2023-07-20T08:26:10;132.30;;;122.33;;
10248;SDS011;5169;50.560;9.714;2023-07-20T08:28:35;130.43;;;120.67;;
10248;SDS011;5169;50.560;9.714;2023-07-20T08:31:05;131.33;;;121.17;;
10248;SDS011;5169;50.560;9.714;2023-07-20T08:33:31;132.50;;;122.20;;
10248;SDS011;5169;50.560;9.714;2023-07-20T08:35:58;122.93;;;113.93;;
10248;SDS011;5169;50.560;9.714;2023-07-20T08:38:26;117.97;;;109.40;;
10248;SDS011;5169;50.560;9.714;2023-07-20T08:40:54;127.87;;;118.27;;
10248;SDS011;5169;50.560;9.714;2023-07-20T08:43:20;122.40;;;113.07;;
10248;SDS011;5169;50.560;9.714;2023-07-20T08:45:49;116.67;;;107.97;;
10248;SDS011;5169;50.560;9.714;2023-07-20T08:48:16;123.80;;;114.10;;
10248;SDS011;5169;50.560;9.714;2023-07-20T08:50:44;127.23;;;117.20;;
10248;SDS011;5169;50.560;9.714;2023-07-20T08:53:12;125.13;;;115.67;;
10248;SDS011;5169;50.560;9.714;2023-07-20T08:55:38;132.03;;;121.97;;
10248;SDS011;5169;50.560;9.714;2023-07-20T08:58:08;121.67;;;112.83;;
10248;SDS011;5169;50.560;9.714;2023-07-20T09:00:35;127.43;;;118.20;;
10248;SDS011;5169;50.560;9.714;2023-07-20T09:03:01;123.63;;;114.83;;
10248;SDS011;5169;50.560;9.714;2023-07-20T09:05:30;128.03;;;118.80;;
10248;SDS011;5169;50.560;9.714;2023-07-20T09:07:56;122.30;;;113.77;;
10248;SDS011;5169;50.560;9.714;2023-07-20T09:10:22;124.70;;;116.10;;
10248;SDS011;5169;50.560;9.714;2023-07-20T09:12:48;130.63;;;121.53;;
10248;SDS011;5169;50.560;9.714;2023-07-20T09:15:16;126.33;;;117.67;;
10248;SDS011;5169;50.560;9.714;2023-07-20T09:17:46;115.80;;;108.17;;
10248;SDS011;5169;50.560;9.714;2023-07-20T09:20:12;109.67;;;102.77;;
10248;SDS011;5169;50.560;9.714;2023-07-20T09:22:41;117.60;;;110.10;;
10248;SDS011;5169;50.560;9.714;2023-07-20T09:25:13;118.73;;;111.40;;
10248;SDS011;5169;50.560;9.714;2023-07-20T09:27:45;126.10;;;117.97;;
10248;SDS011;5169;50.560;9.714;2023-07-20T09:30:11;123.77;;;115.67;;
10248;SDS011;5169;50.560;9.714;2023-07-20T09:32:43;115.23;;;108.03;;
10248;SDS011;5169;50.560;9.714;2023-07-20T09:35:15;121.00;;;113.30;;
10248;SDS011;5169;50.560;9.714;2023-07-20T09:37:51;130.93;;;122.63;;
10248;SDS011;5169;50.560;9.714;2023-07-20T09:40:22;133.60;;;124.63;;
10248;SDS011;5169;50.560;9.714;2023-07-20T09:42:52;128.03;;;119.73;;
10248;SDS011;5169;50.560;9.714;2023-07-20T09:45:28;127.40;;;119.20;;
10248;SDS011;5169;50.560;9.714;2023-07-20T09:48:02;114.70;;;107.50;;
10248;SDS011;5169;50.560;9.714;2023-07-20T09:50:30;115.17;;;107.27;;
10248;SDS011;5169;50.560;9.714;2023-07-20T09:52:56;126.80;;;118.50;;
10248;SDS011;5169;50.560;9.714;2023-07-20T09:55:22;110.30;;;103.17;;
10248;SDS011;5169;50.560;9.714;2023-07-20T09:57:49;108.53;;;101.67;;
10248;SDS011;5169;50.560;9.714;2023-07-20T10:00:15;104.90;;;98.50;;
10248;SDS011;5169;50.560;9.714;2023-07-20T10:02:45;121.67;;;113.97;;
10248;SDS011;5169;50.560;9.714;2023-07-20T10:05:14;92.87;;;87.07;;
10248;SDS011;5169;50.560;9.714;2023-07-20T10:07:44;97.77;;;91.53;;
10248;SDS011;5169;50.560;9.714;2023-07-20T10:10:12;104.27;;;97.67;;
10248;SDS011;5169;50.560;9.714;2023-07-20T10:12:42;112.13;;;104.67;;
10248;SDS011;5169;50.560;9.714;2023-07-20T10:18:09;105.07;;;98.27;;
10248;SDS011;5169;50.560;9.714;2023-07-20T10:20:52;110.10;;;102.90;;
10248;SDS011;5169;50.560;9.714;2023-07-20T10:23:22;107.17;;;99.93;;
10248;SDS011;5169;50.560;9.714;2023-07-20T10:25:48;119.50;;;111.70;;
10248;SDS011;5169;50.560;9.714;2023-07-20T10:28:15;106.97;;;100.37;;
10248;SDS011;5169;50.560;9.714;2023-07-20T10:30:41;112.17;;;105.20;;
10248;SDS011;5169;50.560;9.714;2023-07-20T10:33:07;116.87;;;109.63;;
10248;SDS011;5169;50.560;9.714;2023-07-20T10:41:28;99.00;;;93.37;;
10248;SDS011;5169;50.560;9.714;2023-07-20T10:44:04;95.50;;;90.30;;
10248;SDS011;5169;50.560;9.714;2023-07-20T10:46:41;84.75;;;80.30;;
10248;SDS011;5169;50.560;9.714;2023-07-20T10:49:11;97.97;;;92.55;;
10248;SDS011;5169;50.560;9.714;2023-07-20T10:51:41;97.60;;;92.40;;
10248;SDS011;5169;50.560;9.714;2023-07-20T10:56:44;122.37;;;115.57;;
10248;SDS011;5169;50.560;9.714;2023-07-20T11:01:59;108.27;;;102.27;;
10248;SDS011;5169;50.560;9.714;2023-07-20T11:04:40;102.20;;;96.50;;
10248;SDS011;5169;50.560;9.714;2023-07-20T11:07:06;129.40;;;121.33;;
10248;SDS011;5169;50.560;9.714;2023-07-20T11:09:36;110.03;;;103.47;;
10248;SDS011;5169;50.560;9.714;2023-07-20T11:12:12;115.77;;;108.97;;
10248;SDS011;5169;50.560;9.714;2023-07-20T11:14:55;103.47;;;97.37;;
10248;SDS011;5169;50.560;9.714;2023-07-20T11:17:31;104.87;;;98.53;;
10248;SDS011;5169;50.560;9.714;2023-07-20T11:20:00;95.23;;;89.63;;
10248;SDS011;5169;50.560;9.714;2023-07-20T11:22:33;80.23;;;75.73;;
10248;SDS011;5169;50.560;9.714;2023-07-20T11:24:59;92.73;;;87.53;;
10248;SDS011;5169;50.560;9.714;2023-07-20T11:27:27;94.17;;;88.90;;
10248;SDS011;5169;50.560;9.714;2023-07-20T11:29:53;74.60;;;70.70;;
10248;SDS011;5169;50.560;9.714;2023-07-20T11:32:24;79.03;;;74.75;;
10248;SDS011;5169;50.560;9.714;2023-07-20T11:34:55;77.90;;;73.93;;
10248;SDS011;5169;50.560;9.714;2023-07-20T11:37:21;84.65;;;80.18;;
10248;SDS011;5169;50.560;9.714;2023-07-20T11:39:46;86.88;;;82.32;;
10248;SDS011;5169;50.560;9.714;2023-07-20T11:42:13;71.68;;;67.95;;
10248;SDS011;5169;50.560;9.714;2023-07-20T11:44:44;82.03;;;77.78;;
10248;SDS011;5169;50.560;9.714;2023-07-20T11:47:10;59.30;;;56.28;;
10248;SDS011;5169;50.560;9.714;2023-07-20T11:49:40;60.17;;;57.22;;
10248;SDS011;5169;50.560;9.714;2023-07-20T11:52:11;70.50;;;66.88;;
10248;SDS011;5169;50.560;9.714;2023-07-20T11:54:41;72.15;;;68.25;;
10248;SDS011;5169;50.560;9.714;2023-07-20T11:57:19;65.97;;;62.65;;
10248;SDS011;5169;50.560;9.714;2023-07-20T11:59:58;57.80;;;54.90;;
10248;SDS011;5169;50.560;9.714;2023-07-20T12:02:29;55.97;;;53.17;;
10248;SDS011;5169;50.560;9.714;2023-07-20T12:04:55;68.00;;;64.33;;
10248;SDS011;5169;50.560;9.714;2023-07-20T12:07:25;64.27;;;60.87;;
10248;SDS011;5169;50.560;9.714;2023-07-20T12:10:06;89.63;;;84.77;;
10248;SDS011;5169;50.560;9.714;2023-07-20T12:12:33;69.00;;;65.30;;
10248;SDS011;5169;50.560;9.714;2023-07-20T12:18:02;87.33;;;82.40;;
10248;SDS011;5169;50.560;9.714;2023-07-20T12:22:56;79.10;;;74.53;;
10248;SDS011;5169;50.560;9.714;2023-07-20T12:28:14;69.73;;;65.80;;
10248;SDS011;5169;50.560;9.714;2023-07-20T12:30:43;77.23;;;72.63;;
10248;SDS011;5169;50.560;9.714;2023-07-20T12:33:10;77.83;;;73.33;;
10248;SDS011;5169;50.560;9.714;2023-07-20T12:35:37;68.47;;;64.63;;
10248;SDS011;5169;50.560;9.714;2023-07-20T12:38:05;66.07;;;62.27;;
10248;SDS011;5169;50.560;9.714;2023-07-20T12:40:31;69.77;;;65.77;;
10248;SDS011;5169;50.560;9.714;2023-07-20T12:42:57;62.17;;;58.27;;
10248;SDS011;5169;50.560;9.714;2023-07-20T12:45:23;51.43;;;48.67;;
10248;SDS011;5169;50.560;9.714;2023-07-20T12:47:49;81.97;;;77.23;;
10248;SDS011;5169;50.560;9.714;2023-07-20T12:50:14;56.40;;;53.33;;
10248;SDS011;5169;50.560;9.714;2023-07-20T12:52:42;79.63;;;75.17;;
10248;SDS011;5169;50.560;9.714;2023-07-20T12:55:10;64.27;;;60.80;;
10248;SDS011;5169;50.560;9.714;2023-07-20T12:57:36;73.30;;;69.40;;
10248;SDS011;5169;50.560;9.714;2023-07-20T13:00:03;60.43;;;57.27;;
10248;SDS011;5169;50.560;9.714;2023-07-20T13:02:30;68.20;;;64.30;;
10248;SDS011;5169;50.560;9.714;2023-07-20T13:05:00;74.10;;;70.00;;
10248;SDS011;5169;50.560;9.714;2023-07-20T13:07:32;55.57;;;52.60;;
10248;SDS011;5169;50.560;9.714;2023-07-20T13:10:01;65.33;;;61.83;;
10248;SDS011;5169;50.560;9.714;2023-07-20T13:12:31;59.03;;;55.83;;
10248;SDS011;5169;50.560;9.714;2023-07-20T13:15:01;62.80;;;59.40;;
10248;SDS011;5169;50.560;9.714;2023-07-20T13:17:30;49.67;;;46.87;;
10248;SDS011;5169;50.560;9.714;2023-07-20T13:20:06;62.47;;;58.87;;
10248;SDS011;5169;50.560;9.714;2023-07-20T13:22:36;65.63;;;62.07;;
10248;SDS011;5169;50.560;9.714;2023-07-20T13:25:03;54.93;;;52.00;;
10248;SDS011;5169;50.560;9.714;2023-07-20T13:27:29;54.03;;;50.83;;
10248;SDS011;5169;50.560;9.714;2023-07-20T13:29:56;55.17;;;52.03;;
10248;SDS011;5169;50.560;9.714;2023-07-20T13:32:22;57.53;;;54.30;;
10248;SDS011;5169;50.560;9.714;2023-07-20T13:34:48;64.00;;;60.50;;
10248;SDS011;5169;50.560;9.714;2023-07-20T13:37:14;59.23;;;55.90;;
10248;SDS011;5169;50.560;9.714;2023-07-20T13:39:41;87.30;;;82.30;;
10248;SDS011;5169;50.560;9.714;2023-07-20T13:42:06;81.60;;;76.90;;
10248;SDS011;5169;50.560;9.714;2023-07-20T13:44:34;80.37;;;75.80;;
10248;SDS011;5169;50.560;9.714;2023-07-20T20:11:46;47.70;;;44.83;;
10248;SDS011;5169;50.560;9.714;2023-07-20T20:14:12;47.00;;;44.27;;
10248;SDS011;5169;50.560;9.714;2023-07-20T20:16:40;53.27;;;49.87;;
10248;SDS011;5169;50.560;9.714;2023-07-20T20:19:05;53.63;;;50.37;;
10248;SDS011;5169;50.560;9.714;2023-07-20T20:21:31;51.93;;;48.90;;
10248;SDS011;5169;50.560;9.714;2023-07-20T20:24:00;59.03;;;55.43;;
10248;SDS011;5169;50.560;9.714;2023-07-20T20:26:26;71.80;;;67.10;;
10248;SDS011;5169;50.560;9.714;2023-07-20T20:28:52;47.67;;;44.83;;
10248;SDS011;5169;50.560;9.714;2023-07-20T20:31:17;39.57;;;37.27;;
10248;SDS011;5169;50.560;9.714;2023-07-20T20:33:43;52.00;;;48.90;;
10248;SDS011;5169;50.560;9.714;2023-07-20T20:36:11;54.23;;;50.83;;
10248;SDS011;5169;50.560;9.714;2023-07-20T20:38:36;68.33;;;63.90;;
10248;SDS011;5169;50.560;9.714;2023-07-20T20:41:02;50.03;;;47.03;;
10248;SDS011;5169;50.560;9.714;2023-07-20T20:43:30;58.10;;;54.50;;
10248;SDS011;5169;50.560;9.714;2023-07-20T20:46:02;54.43;;;51.13;;
10248;SDS011;5169;50.560;9.714;2023-07-20T20:48:33;51.47;;;48.40;;
10248;SDS011;5169;50.560;9.714;2023-07-20T20:51:02;60.10;;;56.30;;
10248;SDS011;5169;50.560;9.714;2023-07-20T20:53:28;52.87;;;49.70;;
10248;SDS011;5169;50.560;9.714;2023-07-20T20:55:56;60.17;;;56.37;;
10248;SDS011;5169;50.560;9.714;2023-07-20T20:58:22;42.80;;;40.30;;
10248;SDS011;5169;50.560;9.714;2023-07-20T21:00:48;41.63;;;38.73;;
10248;SDS011;5169;50.560;9.714;2023-07-20T21:03:14;42.67;;;40.10;;
10248;SDS011;5169;50.560;9.714;2023-07-20T21:05:40;51.97;;;48.83;;
10248;SDS011;5169;50.560;9.714;2023-07-20T21:08:06;44.67;;;42.03;;
10248;SDS011;5169;50.560;9.714;2023-07-20T21:10:36;60.63;;;56.80;;
10248;SDS011;5169;50.560;9.714;2023-07-20T21:13:08;45.80;;;43.13;;
10248;SDS011;5169;50.560;9.714;2023-07-20T21:15:33;46.10;;;43.40;;